createdAt,value
2019-02-20T00:02:06.138Z,7.19
2019-02-20T00:04:36.372Z,7.21
2019-02-20T00:07:06.654Z,7.20
2019-02-20T00:09:38.030Z,7.18
2019-02-20T00:12:09.291Z,7.18
2019-02-20T00:14:40.011Z,7.16
2019-02-20T00:17:10.544Z,7.16
2019-02-20T00:19:40.874Z,7.17
2019-02-20T00:22:11.199Z,7.19
2019-02-20T00:24:41.561Z,7.21
2019-02-20T00:27:11.909Z,7.21
2019-02-20T00:29:42.242Z,7.20
2019-02-20T00:32:12.570Z,7.21
2019-02-20T00:34:43.070Z,7.20
2019-02-20T00:37:13.344Z,7.16
2019-02-20T00:39:44.222Z,7.14
2019-02-20T00:42:14.501Z,7.16
2019-02-20T00:45:06.872Z,7.16
2019-02-20T00:47:53.555Z,7.18
2019-02-20T00:50:25.317Z,7.15
2019-02-20T00:53:00.993Z,7.12
2019-02-20T00:55:31.384Z,7.14
2019-02-20T00:58:01.668Z,7.11
2019-02-20T01:00:32.003Z,7.08
2019-02-20T01:03:02.383Z,7.07
2019-02-20T01:05:33.103Z,7.08
2019-02-20T01:08:03.621Z,7.10
2019-02-20T01:10:34.355Z,7.12
2019-02-20T01:13:04.627Z,7.12
2019-02-20T01:15:35.526Z,7.12
2019-02-20T01:18:05.957Z,7.10
2019-02-20T01:20:36.290Z,7.09
2019-02-20T01:23:06.694Z,7.10
2019-02-20T01:25:37.095Z,7.11
2019-02-20T01:28:07.382Z,7.12
2019-02-20T01:30:37.889Z,7.12
2019-02-20T01:33:08.282Z,7.12
2019-02-20T01:35:38.561Z,7.12
2019-02-20T01:38:09.260Z,7.13
2019-02-20T01:40:39.645Z,7.14
2019-02-20T01:43:10.178Z,7.16
2019-02-20T01:45:40.412Z,7.21
2019-02-20T01:48:10.967Z,7.24
2019-02-20T01:50:41.343Z,7.24
2019-02-20T01:53:11.546Z,7.27
2019-02-20T01:55:41.837Z,7.27
2019-02-20T01:58:12.079Z,7.29
2019-02-20T02:00:42.408Z,7.31
2019-02-20T02:03:12.805Z,7.27
2019-02-20T02:05:43.051Z,7.29
2019-02-20T02:08:13.371Z,7.30
2019-02-20T03:59:23.563Z,6.98
2019-02-20T04:01:53.816Z,7.01
2019-02-20T04:04:24.023Z,7.05
2019-02-20T04:06:54.266Z,7.06
2019-02-20T04:09:24.769Z,7.02
2019-02-20T04:11:55.017Z,7.02
2019-02-20T04:14:25.324Z,6.99
2019-02-20T04:16:55.526Z,6.94
2019-02-20T04:19:25.723Z,6.93
2019-02-20T04:21:56.310Z,6.94
2019-02-20T04:24:26.728Z,6.93
2019-02-20T04:26:57.353Z,6.93
2019-02-20T04:29:27.658Z,6.99
2019-02-20T04:31:57.957Z,7.01
2019-02-20T04:34:28.656Z,7.02
2019-02-20T04:36:59.088Z,7.01
2019-02-20T04:39:29.468Z,6.98
2019-02-20T04:42:00.331Z,6.98
2019-02-20T04:44:30.668Z,6.98
2019-02-20T04:47:01.595Z,6.96
2019-02-20T04:49:31.945Z,6.93
2019-02-20T04:52:02.147Z,6.94
2019-02-20T04:54:32.584Z,6.94
2019-02-20T04:57:02.980Z,6.98
2019-02-20T04:59:33.444Z,7.01
2019-02-20T05:02:05.382Z,7.02
2019-02-20T05:04:36.243Z,7.03
2019-02-20T05:07:06.838Z,7.04
2019-02-20T05:09:39.620Z,7.00
2019-02-20T05:12:10.179Z,6.95
2019-02-20T05:14:40.415Z,6.93
2019-02-20T05:17:11.431Z,6.93
2019-02-20T05:19:41.811Z,6.93
2019-02-20T05:22:12.453Z,6.94
2019-02-20T05:24:43.248Z,6.98
2019-02-20T05:27:13.661Z,7.03
2019-02-20T05:29:44.321Z,7.10
2019-02-20T05:32:14.561Z,7.11
2019-02-20T05:34:45.194Z,7.11
2019-02-20T05:37:15.381Z,7.14
2019-02-20T05:39:46.971Z,7.16
2019-02-20T05:42:17.188Z,7.16
2019-02-20T05:44:47.845Z,7.15
2019-02-20T05:47:18.306Z,7.16
2019-02-20T05:49:48.739Z,7.14
2019-02-20T05:52:19.329Z,7.10
2019-02-20T05:54:49.687Z,7.05
2019-02-20T05:57:20.021Z,7.06
2019-02-20T05:59:50.703Z,7.04
2019-02-20T06:02:21.543Z,7.01
2019-02-20T06:04:54.577Z,6.98
2019-02-20T06:07:24.807Z,6.97
2019-02-20T06:09:55.120Z,6.91
2019-02-20T06:12:25.443Z,6.87
2019-02-20T06:14:55.715Z,6.82
2019-02-20T06:17:25.998Z,6.82
2019-02-20T06:19:56.206Z,6.86
2019-02-20T06:22:27.185Z,6.89
2019-02-20T06:24:57.766Z,6.92
2019-02-20T06:27:28.286Z,6.95
2019-02-20T06:29:58.611Z,6.95
2019-02-20T06:32:28.833Z,7.01
2019-02-20T06:34:59.515Z,7.04
2019-02-20T06:37:29.790Z,7.03
2019-02-20T06:40:00.858Z,7.01
2019-02-20T06:42:31.378Z,7.01
2019-02-20T06:45:01.701Z,7.02
2019-02-20T06:47:32.293Z,7.01
2019-02-20T06:50:02.629Z,7.00
2019-02-20T06:52:32.891Z,7.03
2019-02-20T06:55:03.211Z,7.03
2019-02-20T06:57:33.457Z,7.00
2019-02-20T07:00:04.101Z,6.98
2019-02-20T07:02:35.765Z,6.94
2019-02-20T07:05:33.817Z,6.94
2019-02-20T07:08:44.687Z,6.97
2019-02-20T07:11:43.753Z,6.97
2019-02-20T07:14:38.860Z,6.98
2019-02-20T07:17:35.525Z,6.98
2019-02-20T07:20:54.978Z,6.98
2019-02-20T07:23:32.680Z,6.98
2019-02-20T07:26:30.042Z,6.99
2019-02-20T07:29:29.399Z,7.01
2019-02-20T07:31:59.970Z,7.04
2019-02-20T07:34:30.232Z,7.03
2019-02-20T07:37:00.438Z,7.08
2019-02-20T07:39:31.111Z,7.10
2019-02-20T07:42:01.358Z,7.11
2019-02-20T07:44:31.689Z,7.18
2019-02-20T07:47:02.489Z,7.24
2019-02-20T07:49:32.743Z,7.23
2019-02-20T07:52:03.327Z,7.21
2019-02-20T07:54:33.666Z,7.26
2019-02-20T07:57:04.341Z,7.35
2019-02-20T07:59:34.649Z,7.49
2019-02-20T08:02:05.011Z,7.63
2019-02-20T08:04:35.335Z,7.67
2019-02-20T08:07:05.727Z,7.72
2019-02-20T08:09:37.732Z,7.81
2019-02-20T08:12:08.330Z,7.91
2019-02-20T08:14:38.569Z,7.96
2019-02-20T08:17:09.050Z,8.01
2019-02-20T08:19:39.834Z,8.00
2019-02-20T08:22:10.711Z,8.13
2019-02-20T08:24:43.813Z,8.19
2019-02-20T08:27:14.149Z,8.14
2019-02-20T08:29:44.489Z,8.09
2019-02-20T08:32:14.738Z,8.07
2019-02-20T08:34:45.000Z,8.03
2019-02-20T08:37:15.434Z,8.06
2019-02-20T08:39:46.375Z,8.21
2019-02-20T08:42:16.648Z,8.32
2019-02-20T08:44:47.334Z,8.32
2019-02-20T08:47:17.634Z,8.29
2019-02-20T08:49:48.198Z,8.24
2019-02-20T08:52:18.400Z,8.30
2019-02-20T08:54:49.108Z,8.37
2019-02-20T08:57:19.371Z,8.60
2019-02-20T08:59:49.562Z,8.88
2019-02-20T09:02:20.616Z,9.11
2019-02-20T09:04:54.825Z,9.30
2019-02-20T09:07:25.583Z,9.19
2019-02-20T09:09:55.866Z,9.22
2019-02-20T09:12:26.177Z,9.34
2019-02-20T09:14:58.499Z,9.52
2019-02-20T09:17:29.094Z,9.60
2019-02-20T09:19:59.542Z,9.74
2019-02-20T09:22:30.215Z,9.81
2019-02-20T09:25:00.502Z,9.69
2019-02-20T09:27:30.797Z,9.50
2019-02-20T09:30:01.743Z,9.43
2019-02-20T09:32:32.171Z,9.47
2019-02-20T09:35:03.006Z,9.48
2019-02-20T09:37:33.312Z,9.65
2019-02-20T09:40:04.292Z,9.75
2019-02-20T09:42:35.461Z,9.82
2019-02-20T09:45:06.224Z,9.90
2019-02-20T09:47:36.476Z,9.84
2019-02-20T09:50:07.326Z,9.86
2019-02-20T09:52:38.368Z,9.78
2019-02-20T09:55:09.669Z,9.66
2019-02-20T09:57:40.336Z,9.59
2019-02-20T10:00:16.643Z,9.52
2019-02-20T10:02:47.444Z,9.41
2019-02-20T10:05:18.069Z,9.16
2019-02-20T10:07:48.690Z,9.06
2019-02-20T10:10:19.296Z,9.13
2019-02-20T10:12:50.112Z,9.25
2019-02-20T10:15:20.409Z,9.33
2019-02-20T10:17:50.655Z,9.37
2019-02-20T10:20:20.876Z,9.46
2019-02-20T10:22:51.311Z,9.45
2019-02-20T10:25:21.731Z,9.49
2019-02-20T10:27:52.157Z,9.41
2019-02-20T10:30:22.587Z,9.43
2019-02-20T10:32:52.838Z,9.42
2019-02-20T10:35:23.123Z,9.36
2019-02-20T10:37:53.765Z,9.28
2019-02-20T10:40:24.059Z,9.20
2019-02-20T10:42:54.352Z,9.21
2019-02-20T10:45:24.900Z,9.15
2019-02-20T10:47:55.522Z,9.10
2019-02-20T10:50:25.893Z,9.06
2019-02-20T10:52:56.114Z,9.06
2019-02-20T10:55:30.123Z,9.12
2019-02-20T10:58:00.636Z,9.14
2019-02-20T11:00:31.384Z,9.18
2019-02-20T11:03:02.171Z,9.11
2019-02-20T11:05:33.461Z,8.91
2019-02-20T11:08:03.786Z,8.86
2019-02-20T11:10:34.425Z,8.82
2019-02-20T11:13:04.861Z,8.84
2019-02-20T11:15:35.284Z,8.92
2019-02-20T11:18:05.680Z,8.93
2019-02-20T11:20:36.345Z,8.93
2019-02-20T11:23:06.918Z,8.99
2019-02-20T11:25:37.607Z,9.02
2019-02-20T11:28:07.951Z,9.04
2019-02-20T11:30:38.757Z,9.09
2019-02-20T11:33:09.579Z,9.17
2019-02-20T11:35:40.426Z,9.20
2019-02-20T11:38:10.763Z,9.22
2019-02-20T11:40:41.259Z,9.11
2019-02-20T11:43:13.619Z,9.09
2019-02-20T11:45:44.212Z,9.12
2019-02-20T11:48:15.230Z,9.14
2019-02-20T11:50:46.175Z,9.03
2019-02-20T11:53:16.397Z,8.92
2019-02-20T11:55:47.733Z,8.88
2019-02-20T11:58:18.019Z,8.90
2019-02-20T12:00:48.339Z,8.94
2019-02-20T12:03:18.744Z,9.05
2019-02-20T12:05:49.106Z,9.08
2019-02-20T12:08:19.482Z,9.08
2019-02-20T12:10:49.948Z,9.11
2019-02-20T12:13:20.644Z,9.20
2019-02-20T12:15:50.978Z,9.23
2019-02-20T12:18:21.728Z,9.24
2019-02-20T12:20:51.994Z,9.18
2019-02-20T12:23:22.331Z,9.14
2019-02-20T12:25:54.347Z,9.13
2019-02-20T12:28:25.049Z,9.05
2019-02-20T12:30:55.397Z,9.04
2019-02-20T12:33:25.708Z,9.04
2019-02-20T12:35:56.032Z,8.93
2019-02-20T12:38:26.299Z,8.94
2019-02-20T12:40:56.564Z,8.99
2019-02-20T12:43:26.891Z,9.08
2019-02-20T12:45:57.427Z,9.16
2019-02-20T12:48:28.003Z,9.13
2019-02-20T12:50:58.576Z,8.93
2019-02-20T12:53:29.240Z,8.81
2019-02-20T12:55:59.633Z,8.74
2019-02-20T12:58:30.370Z,8.75
2019-02-20T13:01:01.106Z,8.73
2019-02-20T13:03:31.852Z,8.75
2019-02-20T13:06:02.088Z,8.64
2019-02-20T13:08:32.596Z,8.56
2019-02-20T13:11:03.255Z,8.55
2019-02-20T13:13:33.727Z,8.54
2019-02-20T13:16:09.605Z,8.55
2019-02-20T13:18:36.117Z,8.53
2019-02-20T13:21:06.480Z,8.49
2019-02-20T13:23:36.801Z,8.48
2019-02-20T13:26:07.173Z,8.55
2019-02-20T13:28:37.516Z,8.60
2019-02-20T13:31:07.875Z,8.60
2019-02-20T13:33:38.197Z,8.65
2019-02-20T13:36:08.498Z,8.71
2019-02-20T13:38:38.960Z,8.77
2019-02-20T13:41:09.517Z,8.79
2019-02-20T13:43:40.044Z,8.85
2019-02-20T13:46:10.352Z,8.83
2019-02-20T13:48:40.797Z,8.88
2019-02-20T13:51:11.090Z,8.95
2019-02-20T13:53:46.352Z,9.09
2019-02-20T13:56:13.856Z,9.18
2019-02-20T13:58:44.106Z,9.36
2019-02-20T14:01:14.318Z,9.51
2019-02-20T14:03:45.803Z,9.54
2019-02-20T14:06:16.069Z,9.53
2019-02-20T14:08:46.419Z,9.52
2019-02-20T14:11:17.233Z,9.54
2019-02-20T14:13:47.658Z,9.53
2019-02-20T14:16:17.896Z,9.50
2019-02-20T14:18:48.133Z,9.42
2019-02-20T14:21:18.382Z,9.37
2019-02-20T14:23:49.691Z,9.32
2019-02-20T14:26:20.749Z,9.39
2019-02-20T14:28:51.422Z,9.53
2019-02-20T14:31:21.665Z,9.55
2019-02-20T14:33:52.095Z,9.55
2019-02-20T14:36:22.248Z,9.53
2019-02-20T14:38:52.764Z,9.50
2019-02-20T14:41:23.351Z,9.53
2019-02-20T14:43:53.606Z,9.51
2019-02-20T14:46:23.896Z,9.46
2019-02-20T14:48:54.222Z,9.43
2019-02-20T14:51:24.499Z,9.46
2019-02-20T14:53:54.711Z,9.46
2019-02-20T14:56:25.242Z,9.55
2019-02-20T14:58:55.522Z,9.63
2019-02-20T15:01:26.041Z,9.67
2019-02-20T15:03:56.358Z,9.67
2019-02-20T15:06:27.116Z,9.65
2019-02-20T15:08:57.917Z,9.63
2019-02-20T15:11:28.177Z,9.63
2019-02-20T15:13:58.415Z,9.63
2019-02-20T15:16:29.157Z,9.66
2019-02-20T15:18:59.480Z,9.70
2019-02-20T15:21:29.957Z,9.71
2019-02-20T15:24:00.740Z,9.69
2019-02-20T15:26:31.435Z,9.65
2019-02-20T15:29:01.720Z,9.59
2019-02-20T15:31:33.981Z,9.48
2019-02-20T15:34:04.971Z,9.45
2019-02-20T15:36:35.260Z,9.43
2019-02-20T15:39:07.549Z,9.42
2019-02-20T15:41:37.865Z,9.43
2019-02-20T15:44:08.194Z,9.43
2019-02-20T15:46:39.690Z,9.44
2019-02-20T15:49:10.836Z,9.42
2019-02-20T15:51:41.180Z,9.32
2019-02-20T15:54:12.349Z,9.31
2019-02-20T15:56:42.705Z,9.32
2019-02-20T15:59:13.073Z,9.38
2019-02-20T16:01:43.376Z,9.39
2019-02-20T16:04:13.764Z,9.40
2019-02-20T16:06:44.548Z,9.46
2019-02-20T16:09:14.804Z,9.50
2019-02-20T16:11:44.986Z,9.50
2019-02-20T16:14:15.383Z,9.47
2019-02-20T16:16:46.323Z,9.49
2019-02-20T16:19:16.591Z,9.50
2019-02-20T16:21:47.055Z,9.53
2019-02-20T16:24:17.806Z,9.54
2019-02-20T16:26:48.985Z,9.53
2019-02-20T16:29:19.239Z,9.52
2019-02-20T16:31:49.806Z,9.56
2019-02-20T16:34:20.113Z,9.51
2019-02-20T16:36:50.417Z,9.50
2019-02-20T16:39:21.479Z,9.51
2019-02-20T16:41:51.982Z,9.50
2019-02-20T16:44:22.284Z,9.50
2019-02-20T16:46:52.606Z,9.54
2019-02-20T16:49:22.833Z,9.45
2019-02-20T16:51:53.074Z,9.49
2019-02-20T16:54:23.565Z,9.44
2019-02-20T16:56:54.339Z,9.44
2019-02-20T16:59:25.607Z,9.37
2019-02-20T17:01:55.907Z,9.37
2019-02-20T17:04:26.262Z,9.30
2019-02-20T17:06:57.123Z,9.19
2019-02-20T17:09:27.495Z,9.26
2019-02-20T17:11:57.783Z,9.28
2019-02-20T17:14:28.328Z,9.22
2019-02-20T17:16:58.554Z,9.28
2019-02-20T17:19:28.782Z,9.30
2019-02-20T17:21:59.477Z,9.29
2019-02-20T17:24:29.906Z,9.29
2019-02-20T17:27:00.319Z,9.28
2019-02-20T17:29:30.634Z,9.27
2019-02-20T17:32:01.148Z,9.12
2019-02-20T17:34:31.373Z,9.14
2019-02-20T17:37:02.665Z,9.11
2019-02-20T17:39:33.246Z,9.02
2019-02-20T17:42:04.083Z,8.98
2019-02-20T17:44:34.602Z,8.90
2019-02-20T17:47:06.249Z,8.87
2019-02-20T17:49:36.649Z,8.77
2019-02-20T17:52:07.420Z,8.73
2019-02-20T17:54:37.963Z,8.71
2019-02-20T17:57:08.459Z,8.67
2019-02-20T17:59:38.918Z,8.67
2019-02-20T18:02:09.450Z,8.71
2019-02-20T18:04:39.853Z,8.73
2019-02-20T18:07:11.121Z,8.76
2019-02-20T18:09:45.730Z,8.79
2019-02-20T18:12:17.616Z,8.80
2019-02-20T18:14:54.976Z,8.84
2019-02-20T18:17:28.370Z,8.85
2019-02-20T18:19:59.640Z,8.86
2019-02-20T18:22:30.030Z,8.87
2019-02-20T18:25:00.440Z,8.86
2019-02-20T18:27:33.249Z,8.84
2019-02-20T18:30:07.198Z,8.81
2019-02-20T18:32:41.066Z,8.73
2019-02-20T18:35:12.190Z,8.77
2019-02-20T18:37:45.180Z,8.79
2019-02-20T18:40:19.065Z,8.74
2019-02-20T18:42:50.572Z,8.73
2019-02-20T18:45:20.985Z,8.70
2019-02-20T18:47:53.226Z,8.80
2019-02-20T18:50:23.853Z,8.83
2019-02-20T18:52:54.515Z,8.75
2019-02-20T18:55:24.854Z,8.83
2019-02-20T18:57:55.220Z,8.88
2019-02-20T19:00:25.475Z,8.78
2019-02-20T19:02:55.854Z,8.86
2019-02-20T19:05:28.354Z,8.90
2019-02-20T19:07:58.617Z,8.92
2019-02-20T19:10:43.411Z,8.93
2019-02-20T19:13:38.278Z,8.95
2019-02-20T19:16:51.383Z,8.95
2019-02-20T19:19:39.206Z,9.05
2019-02-20T19:22:45.540Z,9.10
2019-02-20T19:25:53.338Z,9.10
2019-02-20T19:28:44.000Z,9.00
2019-02-20T19:31:44.400Z,9.04
2019-02-20T19:34:58.953Z,9.14
2019-02-20T19:37:47.031Z,9.09
2019-02-20T19:41:02.882Z,9.17
2019-02-20T19:44:16.196Z,9.23
2019-02-20T19:47:20.837Z,9.23
2019-02-20T19:50:43.473Z,9.26
2019-02-20T19:53:21.776Z,9.23
2019-02-20T19:56:45.095Z,9.21
2019-02-20T20:00:00.372Z,9.29
2019-02-20T20:03:22.276Z,9.31
2019-02-20T20:06:02.102Z,9.31
2019-02-20T20:09:05.465Z,9.25
2019-02-20T20:12:01.574Z,9.27
2019-02-20T20:15:14.679Z,9.32
2019-02-20T20:18:18.897Z,9.35
2019-02-20T20:21:07.312Z,9.38
2019-02-20T20:24:07.012Z,9.26
2019-02-20T20:27:06.074Z,9.26
2019-02-20T20:30:27.812Z,9.29
2019-02-20T20:33:30.141Z,9.31
2019-02-20T20:36:32.741Z,9.30
2019-02-20T20:39:28.957Z,9.29
2019-02-20T20:42:39.175Z,9.34
2019-02-20T20:45:34.158Z,9.30
2019-02-20T20:48:42.166Z,9.35
2019-02-20T20:51:59.687Z,9.36
2019-02-20T20:54:54.721Z,9.32
2019-02-20T20:58:01.898Z,9.41
2019-02-20T21:01:16.518Z,9.41
2019-02-20T21:04:33.226Z,9.41
2019-02-20T21:07:45.786Z,9.45
2019-02-20T21:11:11.807Z,9.47
2019-02-20T21:14:20.882Z,9.49
2019-02-20T21:17:24.177Z,9.40
2019-02-20T21:20:14.966Z,9.37
2019-02-20T21:23:10.667Z,9.37
2019-02-20T21:26:38.952Z,9.36
2019-02-20T21:29:47.546Z,9.29
2019-02-20T21:32:41.085Z,9.29
2019-02-20T21:35:52.524Z,9.29
2019-02-20T21:39:06.636Z,9.32
2019-02-20T21:41:55.087Z,9.32
2019-02-20T21:44:56.949Z,9.32
2019-02-20T21:47:55.656Z,9.32
2019-02-20T21:50:43.085Z,9.32
2019-02-20T21:53:39.194Z,9.34
2019-02-20T21:56:30.321Z,9.29
2019-02-20T21:59:18.610Z,9.24
2019-02-20T22:01:56.910Z,9.20
2019-02-20T22:04:51.304Z,9.21
2019-02-20T22:08:06.674Z,9.20
2019-02-20T22:11:16.606Z,9.17
2019-02-20T22:14:43.283Z,9.10
2019-02-20T22:17:38.247Z,9.06
2019-02-20T22:20:44.453Z,9.04
2019-02-20T22:24:25.608Z,9.03
2019-02-20T22:27:27.281Z,9.05
2019-02-20T22:30:47.343Z,9.09
2019-02-20T22:33:41.155Z,9.12
2019-02-20T22:36:51.713Z,9.12
2019-02-20T22:39:53.146Z,9.17
2019-02-20T22:43:04.847Z,9.15
2019-02-20T22:46:25.352Z,9.13
2019-02-20T22:49:33.187Z,9.12
2019-02-20T22:52:21.301Z,9.12
2019-02-20T22:55:41.521Z,9.09
2019-02-20T22:58:59.028Z,9.09
2019-02-20T23:02:13.601Z,9.03
2019-02-20T23:05:09.275Z,8.98
2019-02-20T23:08:05.220Z,8.94
2019-02-20T23:11:14.888Z,8.93
2019-02-20T23:13:58.523Z,8.93
2019-02-20T23:16:28.913Z,8.95
2019-02-20T23:18:59.555Z,8.95
2019-02-20T23:21:30.302Z,8.92
2019-02-20T23:24:00.807Z,8.89
2019-02-20T23:26:31.175Z,8.89
2019-02-20T23:29:01.776Z,8.88
2019-02-20T23:31:32.434Z,8.88
2019-02-20T23:34:03.053Z,8.88
2019-02-20T23:36:33.594Z,8.89
2019-02-20T23:39:05.234Z,8.86
2019-02-20T23:41:35.665Z,8.85
2019-02-20T23:44:06.062Z,8.86
2019-02-20T23:46:36.879Z,8.87
2019-02-20T23:49:08.265Z,8.89
2019-02-20T23:51:38.911Z,8.87
2019-02-20T23:54:09.432Z,8.87
2019-02-20T23:56:39.827Z,8.87
2019-02-20T23:59:10.316Z,8.82
